sensor_id;sensor_type;location;lat;lon;timestamp;temperature;humidity
63960;DHT22;50136;51.374;0.096;2023-06-05T00:04:00;12.10;99.90
63960;DHT22;50136;51.374;0.096;2023-06-05T00:14:02;12.20;99.90
63960;DHT22;50136;51.374;0.096;2023-06-05T00:24:06;12.20;99.90
63960;DHT22;50136;51.374;0.096;2023-06-05T00:34:08;12.10;99.90
63960;DHT22;50136;51.374;0.096;2023-06-05T00:44:11;12.10;99.90
63960;DHT22;50136;51.374;0.096;2023-06-05T00:54:13;12.10;99.90
63960;DHT22;50136;51.374;0.096;2023-06-05T01:04:17;12.10;99.90
63960;DHT22;50136;51.374;0.096;2023-06-05T01:14:21;12.00;99.90
63960;DHT22;50136;51.374;0.096;2023-06-05T01:24:25;12.00;99.90
63960;DHT22;50136;51.374;0.096;2023-06-05T01:34:27;11.90;99.90
63960;DHT22;50136;51.374;0.096;2023-06-05T01:44:31;11.80;99.90
63960;DHT22;50136;51.374;0.096;2023-06-05T01:54:33;11.70;99.90
63960;DHT22;50136;51.374;0.096;2023-06-05T02:04:36;11.60;99.90
63960;DHT22;50136;51.374;0.096;2023-06-05T02:14:38;11.60;99.90
63960;DHT22;50136;51.374;0.096;2023-06-05T02:24:41;11.70;99.90
63960;DHT22;50136;51.374;0.096;2023-06-05T02:34:43;11.70;99.90
63960;DHT22;50136;51.374;0.096;2023-06-05T02:44:47;11.70;99.90
63960;DHT22;50136;51.374;0.096;2023-06-05T02:54:49;11.70;99.90
63960;DHT22;50136;51.374;0.096;2023-06-05T03:04:52;11.70;99.90
63960;DHT22;50136;51.374;0.096;2023-06-05T03:14:54;11.70;99.90
63960;DHT22;50136;51.374;0.096;2023-06-05T03:24:57;11.80;99.90
63960;DHT22;50136;51.374;0.096;2023-06-05T03:35:00;11.70;99.90
63960;DHT22;50136;51.374;0.096;2023-06-05T03:45:03;11.70;99.90
63960;DHT22;50136;51.374;0.096;2023-06-05T03:55:06;11.70;99.90
63960;DHT22;50136;51.374;0.096;2023-06-05T04:05:10;11.90;99.90
63960;DHT22;50136;51.374;0.096;2023-06-05T04:15:12;11.90;99.90
63960;DHT22;50136;51.374;0.096;2023-06-05T04:25:16;11.90;99.90
63960;DHT22;50136;51.374;0.096;2023-06-05T04:35:18;11.90;99.90
63960;DHT22;50136;51.374;0.096;2023-06-05T04:45:21;11.90;99.90
63960;DHT22;50136;51.374;0.096;2023-06-05T04:55:23;12.00;99.90
63960;DHT22;50136;51.374;0.096;2023-06-05T05:05:26;12.00;99.90
63960;DHT22;50136;51.374;0.096;2023-06-05T05:15:29;12.10;99.90
63960;DHT22;50136;51.374;0.096;2023-06-05T05:25:32;12.20;99.90
63960;DHT22;50136;51.374;0.096;2023-06-05T05:35:34;12.30;99.90
63960;DHT22;50136;51.374;0.096;2023-06-05T05:45:37;12.30;99.90
63960;DHT22;50136;51.374;0.096;2023-06-05T05:55:39;12.40;99.90
63960;DHT22;50136;51.374;0.096;2023-06-05T06:05:43;12.40;99.90
63960;DHT22;50136;51.374;0.096;2023-06-05T06:15:45;12.60;99.90
63960;DHT22;50136;51.374;0.096;2023-06-05T06:25:48;12.60;99.90
63960;DHT22;50136;51.374;0.096;2023-06-05T06:35:50;12.70;99.90
63960;DHT22;50136;51.374;0.096;2023-06-05T06:45:54;12.80;99.90
63960;DHT22;50136;51.374;0.096;2023-06-05T06:55:56;12.80;99.90
63960;DHT22;50136;51.374;0.096;2023-06-05T07:05:59;13.20;99.90
63960;DHT22;50136;51.374;0.096;2023-06-05T07:16:01;13.10;99.90
63960;DHT22;50136;51.374;0.096;2023-06-05T07:26:04;13.30;99.90
63960;DHT22;50136;51.374;0.096;2023-06-05T07:36:07;13.50;99.90
63960;DHT22;50136;51.374;0.096;2023-06-05T07:46:10;13.50;99.90
63960;DHT22;50136;51.374;0.096;2023-06-05T07:56:13;13.70;99.90
63960;DHT22;50136;51.374;0.096;2023-06-05T08:06:16;13.80;99.90
63960;DHT22;50136;51.374;0.096;2023-06-05T08:16:18;13.80;99.90
63960;DHT22;50136;51.374;0.096;2023-06-05T08:26:21;14.50;99.90
63960;DHT22;50136;51.374;0.096;2023-06-05T08:36:23;14.80;99.90
63960;DHT22;50136;51.374;0.096;2023-06-05T08:46:28;14.80;99.90
63960;DHT22;50136;51.374;0.096;2023-06-05T08:56:31;14.70;99.90
63960;DHT22;50136;51.374;0.096;2023-06-05T09:06:35;14.70;99.90
63960;DHT22;50136;51.374;0.096;2023-06-05T09:16:38;15.00;99.90
63960;DHT22;50136;51.374;0.096;2023-06-05T09:26:54;15.40;99.90
63960;DHT22;50136;51.374;0.096;2023-06-05T09:36:57;15.50;99.80
63960;DHT22;50136;51.374;0.096;2023-06-05T09:47:03;15.60;99.90
63960;DHT22;50136;51.374;0.096;2023-06-05T09:57:07;16.00;98.80
63960;DHT22;50136;51.374;0.096;2023-06-05T10:07:11;16.30;98.90
63960;DHT22;50136;51.374;0.096;2023-06-05T10:17:13;16.20;98.90
63960;DHT22;50136;51.374;0.096;2023-06-05T10:27:32;16.10;98.80
63960;DHT22;50136;51.374;0.096;2023-06-05T10:37:52;16.20;98.70
63960;DHT22;50136;51.374;0.096;2023-06-05T10:47:59;16.80;98.20
63960;DHT22;50136;51.374;0.096;2023-06-05T10:58:12;16.90;97.70
63960;DHT22;50136;51.374;0.096;2023-06-05T11:08:16;17.20;97.80
63960;DHT22;50136;51.374;0.096;2023-06-05T11:18:32;17.50;97.10
63960;DHT22;50136;51.374;0.096;2023-06-05T11:28:40;18.00;96.30
63960;DHT22;50136;51.374;0.096;2023-06-05T11:38:52;18.30;96.20
63960;DHT22;50136;51.374;0.096;2023-06-05T11:48:56;18.40;95.90
63960;DHT22;50136;51.374;0.096;2023-06-05T11:58:58;18.60;96.20
63960;DHT22;50136;51.374;0.096;2023-06-05T12:09:08;19.00;94.90
63960;DHT22;50136;51.374;0.096;2023-06-05T12:19:12;19.30;94.60
63960;DHT22;50136;51.374;0.096;2023-06-05T12:29:18;19.50;94.70
63960;DHT22;50136;51.374;0.096;2023-06-05T12:39:20;19.20;94.70
63960;DHT22;50136;51.374;0.096;2023-06-05T12:49:24;19.40;94.60
63960;DHT22;50136;51.374;0.096;2023-06-05T12:59:26;19.80;93.90
63960;DHT22;50136;51.374;0.096;2023-06-05T13:09:29;19.80;94.20
63960;DHT22;50136;51.374;0.096;2023-06-05T13:19:31;19.40;93.90
63960;DHT22;50136;51.374;0.096;2023-06-05T13:29:34;20.30;93.70
63960;DHT22;50136;51.374;0.096;2023-06-05T13:39:36;19.90;93.70
63960;DHT22;50136;51.374;0.096;2023-06-05T13:49:40;20.60;93.00
63960;DHT22;50136;51.374;0.096;2023-06-05T13:59:42;20.80;92.30
63960;DHT22;50136;51.374;0.096;2023-06-05T14:09:45;20.40;92.90
63960;DHT22;50136;51.374;0.096;2023-06-05T14:19:47;20.40;93.20
63960;DHT22;50136;51.374;0.096;2023-06-05T14:29:51;20.50;92.80
63960;DHT22;50136;51.374;0.096;2023-06-05T14:39:53;20.60;92.70
63960;DHT22;50136;51.374;0.096;2023-06-05T14:49:56;20.70;92.50
63960;DHT22;50136;51.374;0.096;2023-06-05T14:59:58;20.50;92.80
63960;DHT22;50136;51.374;0.096;2023-06-05T15:10:02;20.70;92.50
63960;DHT22;50136;51.374;0.096;2023-06-05T15:20:05;21.60;92.10
63960;DHT22;50136;51.374;0.096;2023-06-05T15:30:09;21.60;92.10
63960;DHT22;50136;51.374;0.096;2023-06-05T15:40:11;21.20;91.70
63960;DHT22;50136;51.374;0.096;2023-06-05T15:50:15;21.20;91.80
63960;DHT22;50136;51.374;0.096;2023-06-05T16:00:18;21.50;92.00
63960;DHT22;50136;51.374;0.096;2023-06-05T16:10:21;21.40;92.30
63960;DHT22;50136;51.374;0.096;2023-06-05T16:20:23;21.10;91.50
63960;DHT22;50136;51.374;0.096;2023-06-05T16:30:27;21.40;92.30
63960;DHT22;50136;51.374;0.096;2023-06-05T16:40:29;20.10;94.20
63960;DHT22;50136;51.374;0.096;2023-06-05T16:50:32;20.00;94.30
63960;DHT22;50136;51.374;0.096;2023-06-05T17:00:34;20.30;94.60
63960;DHT22;50136;51.374;0.096;2023-06-05T17:10:37;19.50;94.90
63960;DHT22;50136;51.374;0.096;2023-06-05T17:20:40;18.90;95.60
63960;DHT22;50136;51.374;0.096;2023-06-05T17:30:43;18.10;96.70
63960;DHT22;50136;51.374;0.096;2023-06-05T17:40:45;17.90;97.70
63960;DHT22;50136;51.374;0.096;2023-06-05T17:50:48;17.70;97.80
63960;DHT22;50136;51.374;0.096;2023-06-05T18:00:50;17.20;99.20
63960;DHT22;50136;51.374;0.096;2023-06-05T18:11:12;17.10;99.20
63960;DHT22;50136;51.374;0.096;2023-06-05T18:21:14;16.60;99.90
63960;DHT22;50136;51.374;0.096;2023-06-05T18:31:19;16.30;99.90
63960;DHT22;50136;51.374;0.096;2023-06-05T18:41:21;16.10;99.90
63960;DHT22;50136;51.374;0.096;2023-06-05T18:51:24;15.70;99.90
63960;DHT22;50136;51.374;0.096;2023-06-05T19:01:27;15.80;99.90
63960;DHT22;50136;51.374;0.096;2023-06-05T19:11:31;15.30;99.90
63960;DHT22;50136;51.374;0.096;2023-06-05T19:21:33;15.00;99.90
63960;DHT22;50136;51.374;0.096;2023-06-05T19:31:37;14.40;99.90
63960;DHT22;50136;51.374;0.096;2023-06-05T19:41:41;14.20;99.90
63960;DHT22;50136;51.374;0.096;2023-06-05T19:51:44;14.10;99.90
63960;DHT22;50136;51.374;0.096;2023-06-05T20:01:46;14.10;99.90
63960;DHT22;50136;51.374;0.096;2023-06-05T20:11:50;14.00;99.90
63960;DHT22;50136;51.374;0.096;2023-06-05T20:21:57;13.80;99.90
63960;DHT22;50136;51.374;0.096;2023-06-05T20:32:01;14.00;99.90
63960;DHT22;50136;51.374;0.096;2023-06-05T20:42:04;14.10;99.90
63960;DHT22;50136;51.374;0.096;2023-06-05T20:52:07;14.10;99.90
63960;DHT22;50136;51.374;0.096;2023-06-05T21:02:10;14.00;99.90
63960;DHT22;50136;51.374;0.096;2023-06-05T21:12:14;13.90;99.90
63960;DHT22;50136;51.374;0.096;2023-06-05T21:22:16;13.80;99.90
63960;DHT22;50136;51.374;0.096;2023-06-05T21:32:19;13.90;99.70
63960;DHT22;50136;51.374;0.096;2023-06-05T21:42:21;13.70;99.60
63960;DHT22;50136;51.374;0.096;2023-06-05T21:52:24;13.80;99.60
63960;DHT22;50136;51.374;0.096;2023-06-05T22:02:29;13.60;99.90
63960;DHT22;50136;51.374;0.096;2023-06-05T22:12:33;13.70;99.90
63960;DHT22;50136;51.374;0.096;2023-06-05T22:22:35;13.60;99.90
63960;DHT22;50136;51.374;0.096;2023-06-05T22:32:39;13.50;99.90
63960;DHT22;50136;51.374;0.096;2023-06-05T22:42:41;13.40;99.90
63960;DHT22;50136;51.374;0.096;2023-06-05T22:52:44;13.30;99.90
63960;DHT22;50136;51.374;0.096;2023-06-05T23:02:46;13.30;99.90
63960;DHT22;50136;51.374;0.096;2023-06-05T23:12:49;13.20;99.90
63960;DHT22;50136;51.374;0.096;2023-06-05T23:22:51;13.10;99.90
63960;DHT22;50136;51.374;0.096;2023-06-05T23:32:55;13.00;99.90
63960;DHT22;50136;51.374;0.096;2023-06-05T23:42:57;12.90;99.90
63960;DHT22;50136;51.374;0.096;2023-06-05T23:53:00;12.90;99.90
